createdAt,value
2023-02-11T00:01:06.648Z,43.67
2023-02-11T00:03:33.840Z,38.65
2023-02-11T00:06:01.269Z,38.97
2023-02-11T00:08:28.493Z,37.47
2023-02-11T00:10:56.050Z,34.70
2023-02-11T00:13:23.353Z,38.53
2023-02-11T00:15:50.741Z,37.42
2023-02-11T00:18:18.120Z,35.20
2023-02-11T00:20:45.316Z,35.97
2023-02-11T00:23:12.564Z,37.63
2023-02-11T00:25:43.397Z,37.57
2023-02-11T00:28:10.644Z,38.03
2023-02-11T00:30:38.040Z,38.42
2023-02-11T00:33:05.334Z,41.13
2023-02-11T00:35:32.484Z,38.58
2023-02-11T00:37:59.669Z,42.25
2023-02-11T00:40:26.909Z,44.85
2023-02-11T00:42:54.058Z,39.50
2023-02-11T00:45:21.432Z,45.00
2023-02-11T00:47:48.823Z,40.65
2023-02-11T00:50:16.051Z,40.38
2023-02-11T00:52:43.239Z,45.78
2023-02-11T00:55:10.477Z,39.63
2023-02-11T00:57:37.685Z,42.23
2023-02-11T01:00:05.539Z,39.10
2023-02-11T01:02:32.700Z,44.88
2023-02-11T01:05:00.127Z,43.35
2023-02-11T01:07:28.029Z,44.53
2023-02-11T01:09:55.195Z,45.17
2023-02-11T01:12:22.363Z,45.17
2023-02-11T01:14:49.588Z,42.00
2023-02-11T01:17:16.776Z,43.17
2023-02-11T01:19:44.015Z,46.05
2023-02-11T01:22:11.155Z,41.42
2023-02-11T01:24:38.294Z,46.97
2023-02-11T01:27:05.469Z,42.30
2023-02-11T01:29:32.674Z,47.28
2023-02-11T01:32:00.730Z,46.80
2023-02-11T01:34:27.885Z,48.27
2023-02-11T01:36:59.026Z,42.15
2023-02-11T01:39:26.678Z,43.15
2023-02-11T01:41:54.186Z,44.55
2023-02-11T01:44:40.231Z,45.28
2023-02-11T01:47:07.464Z,44.33
2023-02-11T01:49:36.217Z,43.85
2023-02-11T01:52:23.790Z,45.90
2023-02-11T01:55:10.727Z,42.73
2023-02-11T01:57:38.657Z,43.38
2023-02-11T02:00:16.840Z,47.17
2023-02-11T02:02:47.046Z,49.63
2023-02-11T02:05:23.492Z,49.00
2023-02-11T02:07:53.700Z,47.55
2023-02-11T02:10:21.764Z,39.30
2023-02-11T02:12:48.927Z,43.58
2023-02-11T02:15:26.499Z,43.70
2023-02-11T02:17:59.766Z,41.17
2023-02-11T02:20:26.896Z,44.90
2023-02-11T02:22:58.679Z,43.35
2023-02-11T02:25:31.957Z,43.58
2023-02-11T02:28:08.519Z,42.65
2023-02-11T02:30:51.032Z,44.47
2023-02-11T02:33:22.818Z,39.63
2023-02-11T02:35:56.549Z,37.90
2023-02-11T02:38:31.529Z,44.05
2023-02-11T02:41:08.850Z,41.03
2023-02-11T02:43:36.886Z,40.50
2023-02-11T02:46:17.792Z,45.07
2023-02-11T02:48:45.126Z,39.53
2023-02-11T02:51:12.245Z,48.38
2023-02-11T02:53:48.221Z,44.22
2023-02-11T02:56:19.256Z,44.45
2023-02-11T02:58:59.531Z,44.00
2023-02-11T03:01:29.579Z,47.65
2023-02-11T03:03:56.932Z,46.77
2023-02-11T03:06:27.249Z,46.63
2023-02-11T03:08:56.169Z,45.77
2023-02-11T03:11:23.425Z,48.83
2023-02-11T03:13:50.572Z,48.22
2023-02-11T03:16:21.687Z,42.05
2023-02-11T03:18:50.432Z,49.78
2023-02-11T03:21:17.657Z,45.08
2023-02-11T03:23:52.275Z,49.28
2023-02-11T03:26:27.869Z,50.57
2023-02-11T03:28:55.174Z,53.78
2023-02-11T03:31:33.905Z,50.53
2023-02-11T03:34:02.371Z,52.20
2023-02-11T03:36:33.676Z,62.63
2023-02-11T03:39:00.888Z,74.13
2023-02-11T03:41:28.068Z,60.53
2023-02-11T03:43:56.170Z,66.32
2023-02-11T03:46:31.399Z,75.45
2023-02-11T03:49:00.137Z,55.67
2023-02-11T03:51:27.303Z,88.55
2023-02-11T03:53:55.531Z,102.77
2023-02-11T03:56:23.492Z,60.33
2023-02-11T03:58:50.634Z,58.40
2023-02-11T04:01:17.938Z,65.45
2023-02-11T04:03:45.095Z,62.90
2023-02-11T04:06:12.265Z,76.40
2023-02-11T04:08:39.516Z,58.70
2023-02-11T04:11:06.683Z,52.22
2023-02-11T04:13:33.912Z,55.15
2023-02-11T04:16:01.114Z,54.03
2023-02-11T04:18:28.417Z,58.50
2023-02-11T04:20:55.585Z,57.40
2023-02-11T04:23:22.788Z,55.33
2023-02-11T04:25:51.207Z,57.08
2023-02-11T04:28:18.598Z,57.00
2023-02-11T04:30:45.874Z,59.10
2023-02-11T04:33:13.137Z,55.90
2023-02-11T04:35:40.449Z,50.85
2023-02-11T04:38:07.640Z,53.63
2023-02-11T04:40:34.785Z,52.65
2023-02-11T04:43:01.952Z,53.30
2023-02-11T04:45:29.119Z,50.05
2023-02-11T04:47:56.252Z,46.97
2023-02-11T04:50:23.385Z,50.83
2023-02-11T04:52:51.058Z,47.67
2023-02-11T04:55:18.284Z,52.05
2023-02-11T04:57:45.440Z,54.38
2023-02-11T05:00:12.948Z,49.88
2023-02-11T05:02:40.116Z,53.67
2023-02-11T05:05:07.357Z,50.80
2023-02-11T05:07:34.512Z,51.97
2023-02-11T05:10:01.682Z,51.40
2023-02-11T05:12:28.809Z,56.80
2023-02-11T05:14:55.947Z,52.30
2023-02-11T05:17:23.103Z,46.50
2023-02-11T05:19:50.305Z,51.17
2023-02-11T05:22:17.484Z,49.28
2023-02-11T05:24:44.645Z,48.00
2023-02-11T05:27:11.793Z,46.33
2023-02-11T05:29:38.984Z,50.70
2023-02-11T05:32:07.318Z,47.13
2023-02-11T05:34:34.480Z,49.63
2023-02-11T05:37:01.686Z,46.05
2023-02-11T05:39:28.864Z,48.05
2023-02-11T05:41:56.018Z,46.00
2023-02-11T05:44:23.279Z,50.40
2023-02-11T05:46:50.464Z,44.83
2023-02-11T05:49:17.901Z,46.05
2023-02-11T05:51:45.054Z,43.17
2023-02-11T05:54:12.274Z,43.60
2023-02-11T05:56:39.453Z,43.88
2023-02-11T05:59:06.736Z,38.23
2023-02-11T06:01:33.901Z,35.40
2023-02-11T06:04:01.109Z,35.78
2023-02-11T06:06:28.457Z,36.95
2023-02-11T06:08:56.399Z,40.97
2023-02-11T06:11:23.579Z,32.75
2023-02-11T06:13:51.544Z,34.70
2023-02-11T06:16:18.863Z,30.97
2023-02-11T06:18:46.050Z,34.87
2023-02-11T06:21:13.302Z,37.70
2023-02-11T06:23:40.492Z,30.20
2023-02-11T06:26:08.795Z,33.13
2023-02-11T06:28:36.145Z,32.63
2023-02-11T06:31:07.209Z,30.27
2023-02-11T06:33:34.943Z,28.05
2023-02-11T06:36:02.339Z,32.53
2023-02-11T06:38:29.543Z,27.50
2023-02-11T06:40:56.721Z,31.57
2023-02-11T06:43:23.867Z,29.75
2023-02-11T06:45:54.517Z,32.75
2023-02-11T06:48:21.899Z,30.27
2023-02-11T06:50:49.104Z,30.43
2023-02-11T06:53:16.303Z,32.63
2023-02-11T06:55:43.480Z,32.13
2023-02-11T06:58:10.652Z,32.20
2023-02-11T07:00:37.830Z,31.33
2023-02-11T07:03:05.079Z,31.08
2023-02-11T07:05:34.155Z,32.75
2023-02-11T07:08:01.347Z,30.60
2023-02-11T07:10:28.490Z,33.77
2023-02-11T07:12:57.770Z,30.85
2023-02-11T07:15:25.897Z,31.20
2023-02-11T07:17:53.066Z,29.92
2023-02-11T07:20:20.250Z,31.33
2023-02-11T07:22:47.386Z,35.03
2023-02-11T07:25:14.627Z,31.92
2023-02-11T07:27:41.976Z,34.00
2023-02-11T07:30:09.443Z,37.47
2023-02-11T07:32:36.637Z,31.02
2023-02-11T07:35:04.015Z,28.67
2023-02-11T07:37:31.314Z,31.70
2023-02-11T07:39:58.491Z,35.75
2023-02-11T07:42:25.638Z,27.73
2023-02-11T07:44:52.792Z,25.23
2023-02-11T07:47:19.993Z,30.95
2023-02-11T07:49:47.704Z,30.75
2023-02-11T07:52:14.847Z,27.43
2023-02-11T07:54:42.042Z,27.48
2023-02-11T07:57:09.217Z,20.63
2023-02-11T07:59:36.373Z,23.50
2023-02-11T08:02:03.647Z,21.98
2023-02-11T08:04:30.826Z,18.25
2023-02-11T08:06:59.276Z,21.50
2023-02-11T08:09:26.534Z,17.48
2023-02-11T08:11:53.649Z,16.25
2023-02-11T08:14:21.068Z,19.17
2023-02-11T08:16:48.310Z,14.90
2023-02-11T08:19:16.151Z,17.83
2023-02-11T08:21:43.404Z,11.10
2023-02-11T08:24:10.573Z,13.93
2023-02-11T08:26:38.089Z,15.68
2023-02-11T08:29:07.625Z,13.02
2023-02-11T08:31:35.406Z,13.40
2023-02-11T08:34:02.672Z,14.15
2023-02-11T08:36:30.706Z,13.45
2023-02-11T08:39:15.954Z,16.73
2023-02-11T08:41:45.072Z,14.75
2023-02-11T08:44:12.311Z,14.65
2023-02-11T08:46:39.495Z,11.15
2023-02-11T08:49:06.689Z,9.70
2023-02-11T08:51:33.950Z,11.88
2023-02-11T08:54:01.184Z,12.63
2023-02-11T08:56:28.387Z,12.00
2023-02-11T08:58:55.894Z,11.25
2023-02-11T09:01:24.143Z,11.98
2023-02-11T09:03:51.372Z,11.30
2023-02-11T09:06:18.763Z,12.80
2023-02-11T09:08:46.708Z,12.85
2023-02-11T09:11:13.869Z,9.45
2023-02-11T09:13:41.449Z,12.48
2023-02-11T09:16:08.614Z,13.10
2023-02-11T09:18:35.807Z,11.73
2023-02-11T09:21:06.636Z,10.27
2023-02-11T09:23:34.567Z,9.95
2023-02-11T09:26:21.930Z,9.40
2023-02-11T09:28:49.211Z,10.48
2023-02-11T09:31:17.213Z,10.65
2023-02-11T09:33:47.893Z,10.65
2023-02-11T09:36:19.015Z,9.18
2023-02-11T09:38:46.180Z,10.02
2023-02-11T09:41:28.395Z,9.90
2023-02-11T09:43:56.839Z,12.07
2023-02-11T09:46:24.061Z,15.65
2023-02-11T09:48:51.672Z,10.60
2023-02-11T09:51:23.765Z,9.50
2023-02-11T09:53:52.007Z,11.20
2023-02-11T09:56:19.219Z,13.32
2023-02-11T09:58:47.210Z,10.32
2023-02-11T10:01:14.578Z,10.98
2023-02-11T10:03:44.521Z,10.18
2023-02-11T10:06:14.534Z,10.68
2023-02-11T10:08:44.487Z,8.43
2023-02-11T10:11:22.612Z,9.17
2023-02-11T10:14:00.257Z,10.23
2023-02-11T10:16:46.153Z,8.68
2023-02-11T10:19:14.100Z,8.73
2023-02-11T10:21:47.812Z,12.13
2023-02-11T10:24:15.305Z,8.13
2023-02-11T10:26:42.525Z,8.73
2023-02-11T10:29:32.715Z,9.38
2023-02-11T10:31:59.904Z,6.45
2023-02-11T10:34:27.129Z,8.82
2023-02-11T10:36:54.390Z,8.68
2023-02-11T10:39:22.537Z,9.05
2023-02-11T10:42:03.422Z,11.30
2023-02-11T10:44:30.540Z,7.88
2023-02-11T10:46:57.784Z,10.27
2023-02-11T10:49:45.224Z,10.88
2023-02-11T10:52:18.643Z,11.70
2023-02-11T10:55:01.866Z,10.65
2023-02-11T10:57:38.651Z,9.18
2023-02-11T11:00:20.842Z,9.55
2023-02-11T11:02:53.409Z,12.45
2023-02-11T11:05:22.594Z,6.30
2023-02-11T11:08:16.125Z,7.40
2023-02-11T11:10:43.733Z,12.82
2023-02-11T11:13:31.155Z,10.45
2023-02-11T11:16:08.582Z,10.60
2023-02-11T11:18:35.929Z,7.90
2023-02-11T11:21:04.307Z,10.02
2023-02-11T11:23:31.505Z,6.78
2023-02-11T11:26:08.365Z,6.72
2023-02-11T11:28:41.470Z,7.55
2023-02-11T11:31:15.604Z,6.72
2023-02-11T11:33:44.513Z,7.95
2023-02-11T11:36:12.506Z,8.67
2023-02-11T11:38:56.632Z,8.40
2023-02-11T11:41:27.837Z,9.50
2023-02-11T11:43:55.857Z,9.25
2023-02-11T11:46:33.120Z,7.18
2023-02-11T11:49:02.409Z,10.85
2023-02-11T11:51:29.557Z,7.35
2023-02-11T11:54:09.971Z,6.93
2023-02-11T11:56:38.631Z,9.13
2023-02-11T11:59:17.044Z,8.55
2023-02-11T12:02:10.781Z,6.90
2023-02-11T12:04:56.684Z,7.60
2023-02-11T12:07:29.586Z,7.90
2023-02-11T12:10:15.304Z,7.75
2023-02-11T12:12:57.482Z,11.63
2023-02-11T12:15:24.649Z,9.75
2023-02-11T12:17:51.889Z,8.05
2023-02-11T12:20:26.182Z,8.43
2023-02-11T12:23:11.446Z,8.77
2023-02-11T12:25:50.020Z,9.65
2023-02-11T12:28:26.179Z,10.20
2023-02-11T12:30:53.781Z,6.38
2023-02-11T12:33:21.256Z,7.27
2023-02-11T12:35:56.824Z,8.70
2023-02-11T12:38:23.988Z,6.53
2023-02-11T12:41:07.159Z,9.30
2023-02-11T12:43:37.841Z,7.88
2023-02-11T12:46:11.561Z,7.93
2023-02-11T12:48:47.869Z,10.10
2023-02-11T12:51:37.597Z,9.70
2023-02-11T12:54:11.082Z,10.43
2023-02-11T12:56:49.449Z,7.20
2023-02-11T12:59:28.992Z,10.55
2023-02-11T13:01:56.211Z,7.97
2023-02-11T13:04:27.667Z,8.55
2023-02-11T13:06:56.841Z,11.25
2023-02-11T13:09:31.975Z,10.45
2023-02-11T13:12:19.746Z,8.57
2023-02-11T13:14:46.890Z,10.27
2023-02-11T13:17:16.320Z,10.45
2023-02-11T13:19:51.102Z,9.90
2023-02-11T13:22:18.219Z,10.30
2023-02-11T13:24:49.126Z,10.65
2023-02-11T13:27:34.869Z,8.65
2023-02-11T13:30:22.037Z,10.40
2023-02-11T13:32:55.606Z,6.78
2023-02-11T13:35:29.649Z,7.82
2023-02-11T13:37:56.919Z,7.10
2023-02-11T13:40:28.242Z,6.57
2023-02-11T13:42:56.567Z,10.83
2023-02-11T13:45:39.168Z,7.43
2023-02-11T13:48:08.222Z,8.05
2023-02-11T13:50:39.290Z,7.85
2023-02-11T13:53:07.996Z,9.05
2023-02-11T13:55:35.421Z,5.87
2023-02-11T13:58:08.609Z,8.10
2023-02-11T14:00:35.909Z,12.65
2023-02-11T14:03:41.716Z,10.55
2023-02-11T14:06:27.367Z,7.43
2023-02-11T14:09:02.545Z,7.50
2023-02-11T14:11:41.881Z,9.23
2023-02-11T14:14:09.086Z,5.63
2023-02-11T14:16:38.621Z,11.32
2023-02-11T14:19:06.736Z,9.53
2023-02-11T14:21:35.222Z,6.25
2023-02-11T14:24:02.382Z,6.13
2023-02-11T14:26:41.499Z,9.40
2023-02-11T14:29:17.990Z,10.00
2023-02-11T14:31:50.410Z,8.43
2023-02-11T14:34:26.998Z,7.13
2023-02-11T14:36:56.913Z,7.22
2023-02-11T14:39:28.735Z,7.50
2023-02-11T14:41:55.876Z,6.10
2023-02-11T14:44:24.024Z,7.60
2023-02-11T14:46:53.394Z,8.50
2023-02-11T14:49:30.674Z,10.67
2023-02-11T14:52:08.144Z,7.80
2023-02-11T14:54:35.294Z,7.97
2023-02-11T14:57:09.776Z,6.78
2023-02-11T14:59:36.969Z,7.03
2023-02-11T15:02:04.189Z,9.07
2023-02-11T15:04:36.144Z,7.03
2023-02-11T15:07:07.518Z,7.03
2023-02-11T15:09:41.764Z,10.68
2023-02-11T15:12:20.220Z,8.10
2023-02-11T15:14:47.892Z,9.65
2023-02-11T15:17:15.689Z,10.55
2023-02-11T15:19:45.052Z,9.03
2023-02-11T15:22:21.860Z,8.80
2023-02-11T15:24:59.290Z,7.25
2023-02-11T15:27:26.484Z,6.15
2023-02-11T15:29:53.688Z,5.93
2023-02-11T15:32:25.016Z,8.15
2023-02-11T15:34:52.762Z,8.05
2023-02-11T15:37:27.202Z,11.15
2023-02-11T15:39:54.699Z,8.70
2023-02-11T15:42:29.017Z,9.40
2023-02-11T15:45:14.870Z,7.20
2023-02-11T15:47:43.542Z,8.35
2023-02-11T15:50:19.952Z,9.93
2023-02-11T15:52:47.147Z,8.55
2023-02-11T15:55:14.755Z,7.70
2023-02-11T15:57:50.933Z,7.00
2023-02-11T16:00:18.894Z,7.93
2023-02-11T16:02:46.205Z,9.82
2023-02-11T16:05:25.644Z,12.15
2023-02-11T16:07:53.091Z,12.48
2023-02-11T16:10:27.816Z,7.57
2023-02-11T16:12:56.532Z,8.90
2023-02-11T16:15:38.302Z,8.52
2023-02-11T16:18:06.546Z,9.27
2023-02-11T16:20:33.711Z,8.43
2023-02-11T16:23:00.874Z,18.42
2023-02-11T16:25:28.030Z,9.77
2023-02-11T16:27:55.214Z,9.80
2023-02-11T16:30:29.429Z,12.73
2023-02-11T16:32:56.613Z,10.15
2023-02-11T16:35:23.813Z,6.90
2023-02-11T16:37:51.012Z,11.40
2023-02-11T16:40:18.365Z,8.85
2023-02-11T16:42:45.508Z,8.15
2023-02-11T16:45:13.593Z,9.23
2023-02-11T16:47:40.997Z,8.13
2023-02-11T16:50:11.671Z,9.60
2023-02-11T16:52:39.010Z,12.98
2023-02-11T16:55:06.353Z,13.63
2023-02-11T16:57:33.557Z,12.68
2023-02-11T17:00:01.042Z,12.00
2023-02-11T17:02:32.250Z,10.40
2023-02-11T17:04:59.851Z,12.38
2023-02-11T17:07:27.257Z,14.05
2023-02-11T17:09:54.392Z,18.02
2023-02-11T17:12:21.764Z,12.63
2023-02-11T17:14:48.920Z,14.63
2023-02-11T17:17:16.301Z,12.20
2023-02-11T17:19:43.463Z,12.40
2023-02-11T17:22:10.996Z,12.77
2023-02-11T17:24:38.253Z,14.15
2023-02-11T17:27:05.431Z,8.67
2023-02-11T17:29:32.569Z,10.52
2023-02-11T17:31:59.837Z,12.73
2023-02-11T17:34:29.195Z,9.75
2023-02-11T17:36:57.891Z,9.90
2023-02-11T17:39:25.890Z,8.82
2023-02-11T17:41:53.025Z,13.25
2023-02-11T17:44:20.244Z,10.30
2023-02-11T17:46:47.437Z,13.73
2023-02-11T17:49:15.774Z,9.40
2023-02-11T17:51:42.927Z,9.43
2023-02-11T17:54:13.808Z,10.07
2023-02-11T17:56:40.981Z,9.70
2023-02-11T17:59:08.623Z,8.93
2023-02-11T18:01:35.835Z,11.13
2023-02-11T18:04:03.166Z,10.15
2023-02-11T18:06:30.512Z,14.02
2023-02-11T18:09:02.417Z,15.90
2023-02-11T18:11:30.471Z,13.10
2023-02-11T18:13:59.458Z,15.90
2023-02-11T18:16:29.123Z,10.55
2023-02-11T18:18:56.726Z,13.07
2023-02-11T18:21:24.110Z,11.03
2023-02-11T18:23:51.387Z,14.47
2023-02-11T18:26:19.176Z,11.90
2023-02-11T18:28:46.397Z,12.85
2023-02-11T18:31:14.139Z,14.18
2023-02-11T18:33:41.686Z,17.80
2023-02-11T18:36:09.696Z,15.27
2023-02-11T18:38:37.089Z,12.55
2023-02-11T18:41:04.346Z,11.73
2023-02-11T18:43:33.490Z,9.80
2023-02-11T18:46:01.277Z,10.13
2023-02-11T18:48:28.562Z,10.45
2023-02-11T18:50:55.799Z,10.43
2023-02-11T18:53:23.147Z,14.00
2023-02-11T18:55:50.555Z,11.90
2023-02-11T18:58:18.164Z,10.27
2023-02-11T19:00:46.148Z,19.13
2023-02-11T19:03:13.380Z,10.18
2023-02-11T19:05:44.428Z,11.63
2023-02-11T19:08:11.599Z,13.90
2023-02-11T19:10:42.370Z,12.93
2023-02-11T19:13:09.614Z,10.43
2023-02-11T19:15:41.270Z,12.95
2023-02-11T19:18:08.404Z,14.93
2023-02-11T19:20:35.607Z,13.77
2023-02-11T19:23:02.744Z,13.85
2023-02-11T19:25:29.936Z,15.83
2023-02-11T19:27:57.117Z,17.88
2023-02-11T19:30:24.287Z,15.27
2023-02-11T19:32:52.854Z,14.40
2023-02-11T19:35:20.383Z,15.27
2023-02-11T19:37:47.645Z,12.37
2023-02-11T19:40:18.482Z,13.43
2023-02-11T19:42:45.736Z,12.18
2023-02-11T19:45:12.925Z,10.98
2023-02-11T19:47:40.091Z,13.60
2023-02-11T19:50:07.587Z,15.20
2023-02-11T19:52:34.736Z,15.43
2023-02-11T19:55:01.965Z,14.32
2023-02-11T19:57:29.187Z,14.23
2023-02-11T19:59:57.023Z,12.77
2023-02-11T20:02:24.206Z,16.40
2023-02-11T20:04:51.433Z,13.13
2023-02-11T20:07:18.716Z,19.15
2023-02-11T20:09:45.888Z,16.70
2023-02-11T20:12:13.157Z,16.65
2023-02-11T20:14:40.317Z,18.38
2023-02-11T20:17:07.575Z,21.55
2023-02-11T20:19:34.829Z,15.68
2023-02-11T20:22:02.020Z,17.73
2023-02-11T20:24:29.206Z,21.60
2023-02-11T20:26:56.528Z,24.85
2023-02-11T20:29:23.931Z,17.05
2023-02-11T20:31:51.337Z,18.50
2023-02-11T20:34:18.939Z,19.63
2023-02-11T20:36:51.816Z,16.45
2023-02-11T20:39:21.663Z,15.52
2023-02-11T20:41:49.029Z,15.45
2023-02-11T20:44:16.218Z,16.93
2023-02-11T20:46:45.977Z,14.48
2023-02-11T20:49:13.787Z,14.98
2023-02-11T20:51:41.202Z,13.82
2023-02-11T20:54:08.829Z,17.08
2023-02-11T20:56:37.063Z,18.43
2023-02-11T20:59:04.793Z,13.73
2023-02-11T21:01:33.024Z,17.98
2023-02-11T21:04:02.222Z,16.13
2023-02-11T21:06:31.793Z,18.17
2023-02-11T21:08:59.013Z,16.73
2023-02-11T21:11:26.183Z,19.63
2023-02-11T21:13:53.360Z,17.37
2023-02-11T21:16:20.759Z,11.73
2023-02-11T21:18:48.430Z,12.63
2023-02-11T21:21:15.748Z,17.60
2023-02-11T21:23:42.917Z,15.77
2023-02-11T21:26:10.353Z,14.13
2023-02-11T21:28:40.468Z,16.63
2023-02-11T21:31:08.248Z,13.55
2023-02-11T21:33:35.527Z,20.00
2023-02-11T21:36:03.331Z,12.65
2023-02-11T21:38:30.596Z,14.00
2023-02-11T21:41:02.853Z,14.38
2023-02-11T21:43:30.114Z,18.35
2023-02-11T21:45:57.400Z,11.85
2023-02-11T21:48:25.800Z,15.65
2023-02-11T21:50:53.132Z,14.10
2023-02-11T21:53:20.488Z,17.75
2023-02-11T21:55:47.722Z,10.10
2023-02-11T21:58:15.032Z,16.15
2023-02-11T22:00:45.200Z,12.68
2023-02-11T22:03:12.882Z,13.65
2023-02-11T22:05:41.249Z,16.88
2023-02-11T22:08:08.916Z,10.90
2023-02-11T22:10:36.272Z,13.63
2023-02-11T22:13:03.595Z,16.48
2023-02-11T22:15:31.064Z,15.82
2023-02-11T22:17:58.284Z,13.60
2023-02-11T22:20:25.529Z,12.27
2023-02-11T22:22:52.796Z,14.35
2023-02-11T22:25:20.020Z,15.60
2023-02-11T22:27:47.183Z,16.17
2023-02-11T22:30:14.618Z,15.13
2023-02-11T22:32:42.540Z,13.45
2023-02-11T22:35:09.764Z,15.48
2023-02-11T22:37:37.471Z,16.35
2023-02-11T22:40:04.906Z,9.13
2023-02-11T22:42:32.063Z,18.75
2023-02-11T22:44:59.272Z,13.32
2023-02-11T22:47:26.524Z,15.43
2023-02-11T22:49:53.850Z,18.58
2023-02-11T22:52:22.411Z,21.23
2023-02-11T22:54:51.210Z,14.98
2023-02-11T22:57:18.447Z,14.95
2023-02-11T22:59:45.849Z,13.05
2023-02-11T23:02:13.148Z,12.77
2023-02-11T23:04:40.413Z,12.40
2023-02-11T23:07:07.596Z,16.65
2023-02-11T23:09:34.976Z,15.07
2023-02-11T23:12:02.096Z,15.00
2023-02-11T23:14:29.248Z,11.95
2023-02-11T23:16:56.478Z,15.48
2023-02-11T23:19:27.618Z,16.75
2023-02-11T23:21:54.866Z,16.35
2023-02-11T23:24:22.143Z,11.43
2023-02-11T23:26:49.305Z,14.07
2023-02-11T23:29:16.485Z,15.43
2023-02-11T23:31:45.984Z,14.43
2023-02-11T23:34:17.022Z,22.98
2023-02-11T23:36:44.564Z,12.43
2023-02-11T23:39:12.014Z,14.35
2023-02-11T23:41:39.195Z,14.10
2023-02-11T23:44:06.385Z,14.48
2023-02-11T23:46:33.525Z,17.05
2023-02-11T23:49:00.880Z,14.73
2023-02-11T23:51:28.130Z,12.57
2023-02-11T23:53:56.234Z,16.67
2023-02-11T23:56:24.353Z,13.75
2023-02-11T23:58:52.190Z,14.57
